Terminal Aerodrome Forecast
Issued by NWS

Home | Current Version | Previous Version | Text Only | Print | Product List | Glossary On
Versions: 1 2 3 4 5 6 7 8 9 10 11 12
420
FTUS42 KGSP 272323
TAFAND
TAF
KAND 272323Z 2800/2824 14004KT P6SM FEW050
     FM280400 13003KT P6SM FEW250
     FM281700 09006KT P6SM FEW060 SCT150=

USA.gov is the U.S. government's official web portal to all federal, state and local government web resources and services.